Temp: 5.1°C   Baro: 1023.7mb
  Wind: 2.0mph   Dir: ESE (105°)
  Rain: 0.0mm (0.0mm/hr)
  Solar: 0W/m2  Hum: 78%
 
Cotswold Observatory Historical Data
Daily Summary for November 10, 2018 Units:  Metric    English   Both
Next Day »
Daily Weekly Monthly Yearly Custom
  High: Low: Average:
Temperature: 12.6 °C 7.5 °C 10 °C
Dew Point: 10.3 °C 6.6 °C 8.5 °C
Humidity: 95% 84% 90%
Wind Speed: 27.4km/h 0.0km/h 5.2km/h
Wind Gust: 38.6km/h - -
Wind direction- - South
Pressure: 993.1 hPa 989.1 hPa -
Precipitation: 7.9 mm    
Historical Graphs
 
 
Tabular Data for November 10, 2018
Time Temperature Dew Point Pressure Wind direction Wind Speed Wind Gust Humidity Rainfall Rate (Hourly) solar
00:04 10.9 °C 9.5 °C 989.1 hPa SW 3.2 km/h 12.9 km/h 91% 2.3 mm 0.00 W/m2
00:09 10.8 °C 9.4 °C 989.1 hPa SSW 6.4 km/h 14.5 km/h 91% 2.3 mm 0.00 W/m2
00:14 10.8 °C 9.2 °C 989.1 hPa South 4.7 km/h 12.9 km/h 90% 2.3 mm 0.00 W/m2
00:19 10.7 °C 9.3 °C 989.1 hPa South 9.7 km/h 12.9 km/h 91% 2.0 mm 0.00 W/m2
00:24 10.7 °C 9.3 °C 989.1 hPa South 1.4 km/h 6.4 km/h 91% 1.8 mm 0.00 W/m2
00:29 10.7 °C 9.3 °C 989.4 hPa WSW 4.7 km/h 16.1 km/h 91% 1.5 mm 0.00 W/m2
00:34 10.7 °C 9.3 °C 989.4 hPa SW 9.7 km/h 11.3 km/h 91% 1.5 mm 0.00 W/m2
00:39 10.6 °C 9.0 °C 989.4 hPa SW 3.2 km/h 14.5 km/h 90% 1.3 mm 0.00 W/m2
00:44 10.4 °C 8.8 °C 989.4 hPa SW 3.2 km/h 8.0 km/h 90% 0.8 mm 0.00 W/m2
00:49 10.4 °C 9.0 °C 989.4 hPa West 3.2 km/h 6.4 km/h 91% 0.5 mm 0.00 W/m2
00:54 10.3 °C 8.7 °C 989.4 hPa West 1.4 km/h 3.2 km/h 90% 0.0 mm 0.00 W/m2
00:59 10.1 °C 8.5 °C 989.7 hPa Calm   3.2 km/h 90% 0.0 mm 0.00 W/m2
01:04 9.9 °C 8.5 °C 989.7 hPa Calm     91% 0.0 mm 0.00 W/m2
01:09 9.8 °C 8.6 °C 989.7 hPa Calm     92% 0.0 mm 0.00 W/m2
01:14 10.0 °C 8.8 °C 989.7 hPa Calm     92% 0.0 mm 0.00 W/m2
01:19 9.8 °C 8.4 °C 989.7 hPa ENE 3.2 km/h 4.8 km/h 91% 0.0 mm 0.00 W/m2
01:24 9.4 °C 8.0 °C 989.7 hPa ENE 1.4 km/h 3.2 km/h 91% 0.0 mm 0.00 W/m2
01:29 9.3 °C 8.1 °C 989.7 hPa ESE 3.2 km/h 6.4 km/h 92% 0.0 mm 0.00 W/m2
01:34 9.2 °C 8.0 °C 990.1 hPa Calm   3.2 km/h 92% 0.0 mm 0.00 W/m2
01:39 9.2 °C 8.0 °C 990.1 hPa SW 1.4 km/h 3.2 km/h 92% 0.0 mm 0.00 W/m2
01:44 9.1 °C 7.9 °C 990.1 hPa Calm   1.6 km/h 92% 0.0 mm 0.00 W/m2
01:49 9.1 °C 7.9 °C 990.1 hPa NNW 3.2 km/h 4.8 km/h 92% 0.0 mm 0.00 W/m2
01:54 9.1 °C 8.0 °C 990.1 hPa Calm   1.6 km/h 93% 0.0 mm 0.00 W/m2
01:59 9.0 °C 7.9 °C 990.1 hPa NNE 3.2 km/h 3.2 km/h 93% 0.0 mm 0.00 W/m2
02:04 9.0 °C 7.9 °C 990.4 hPa Calm   3.2 km/h 93% 0.0 mm 0.00 W/m2
02:09 8.8 °C 7.6 °C 990.4 hPa NE 1.4 km/h 4.8 km/h 92% 0.0 mm 0.00 W/m2
02:14 8.8 °C 7.7 °C 990.4 hPa West 3.2 km/h 3.2 km/h 93% 0.0 mm 0.00 W/m2
02:19 8.4 °C 7.2 °C 990.4 hPa WSW 1.4 km/h 4.8 km/h 92% 0.0 mm 0.00 W/m2
02:24 8.5 °C 7.4 °C 990.4 hPa WSW 3.2 km/h 3.2 km/h 93% 0.0 mm 0.00 W/m2
02:29 8.4 °C 7.5 °C 990.4 hPa Calm     94% 0.0 mm 0.00 W/m2
02:34 8.4 °C 7.5 °C 990.7 hPa Calm     94% 0.0 mm 0.00 W/m2
02:39 8.2 °C 7.1 °C 990.7 hPa WSW 3.2 km/h 3.2 km/h 93% 0.0 mm 0.00 W/m2
02:44 7.9 °C 6.8 °C 990.7 hPa Calm     93% 0.0 mm 0.00 W/m2
02:49 7.7 °C 6.6 °C 990.7 hPa WSW 4.7 km/h 4.8 km/h 93% 0.0 mm 0.00 W/m2
02:54 7.8 °C 6.9 °C 990.7 hPa Calm   3.2 km/h 94% 0.0 mm 0.00 W/m2
02:59 8.1 °C 7.3 °C 990.7 hPa Calm   1.6 km/h 95% 0.0 mm 0.00 W/m2
03:04 8.1 °C 7.3 °C 990.7 hPa NE 1.4 km/h 3.2 km/h 95% 0.0 mm 0.00 W/m2
03:09 7.9 °C 6.8 °C 990.7 hPa Calm     93% 0.0 mm 0.00 W/m2
03:14 7.7 °C 6.8 °C 990.7 hPa Calm     94% 0.0 mm 0.00 W/m2
03:19 7.5 °C 6.6 °C 990.7 hPa Calm     94% 0.0 mm 0.00 W/m2
03:24 7.7 °C 6.8 °C 990.7 hPa Calm   3.2 km/h 94% 0.0 mm 0.00 W/m2
03:29 7.6 °C 6.7 °C 990.7 hPa NNW 1.4 km/h 3.2 km/h 94% 0.0 mm 0.00 W/m2
03:34 7.8 °C 7.0 °C 990.7 hPa Calm   3.2 km/h 95% 0.0 mm 0.00 W/m2
03:39 8.1 °C 7.3 °C 991.1 hPa Calm   6.4 km/h 95% 0.0 mm 0.00 W/m2
03:44 8.1 °C 7.2 °C 991.1 hPa Calm     94% 0.0 mm 0.00 W/m2
03:49 8.2 °C 7.4 °C 991.1 hPa South 3.2 km/h 4.8 km/h 95% 0.0 mm 0.00 W/m2
03:54 8.6 °C 7.8 °C 991.1 hPa South 1.4 km/h 6.4 km/h 95% 0.3 mm 0.00 W/m2
03:59 8.8 °C 8.0 °C 991.1 hPa South 3.2 km/h 12.9 km/h 95% 0.3 mm 0.00 W/m2
04:04 9.1 °C 8.3 °C 991.1 hPa WSW 4.7 km/h 11.3 km/h 95% 0.3 mm 0.00 W/m2
04:09 9.2 °C 8.3 °C 991.1 hPa West 9.7 km/h 9.7 km/h 94% 0.3 mm 0.00 W/m2
04:14 9.2 °C 8.1 °C 991.1 hPa Calm   3.2 km/h 93% 0.3 mm 0.00 W/m2
04:19 9.1 °C 8.0 °C 991.1 hPa SW 6.4 km/h 9.7 km/h 93% 0.3 mm 0.00 W/m2
04:24 9.2 °C 8.1 °C 991.1 hPa Calm   3.2 km/h 93% 0.3 mm 0.00 W/m2
04:29 9.1 °C 8.0 °C 991.4 hPa Calm   1.6 km/h 93% 0.3 mm 0.00 W/m2
04:34 9.1 °C 8.0 °C 991.4 hPa WSW 1.4 km/h 4.8 km/h 93% 0.3 mm 0.00 W/m2
04:39 9.1 °C 8.0 °C 991.4 hPa Calm   4.8 km/h 93% 0.3 mm 0.00 W/m2
04:44 9.0 °C 7.8 °C 991.4 hPa South 3.2 km/h 3.2 km/h 92% 0.3 mm 0.00 W/m2
04:49 8.8 °C 7.6 °C 991.4 hPa ESE 1.4 km/h 3.2 km/h 92% 0.3 mm 0.00 W/m2
04:54 8.6 °C 7.4 °C 991.4 hPa Calm     92% 0.0 mm 0.00 W/m2
04:59 8.7 °C 7.6 °C 991.4 hPa Calm     93% 0.0 mm 0.00 W/m2
05:04 8.9 °C 8.0 °C 991.4 hPa Calm     94% 0.0 mm 0.00 W/m2
05:09 8.9 °C 7.8 °C 991.4 hPa Calm     93% 0.0 mm 0.00 W/m2
05:14 9.0 °C 8.1 °C 991.4 hPa Calm     94% 0.0 mm 0.00 W/m2
05:19 9.0 °C 7.9 °C 991.4 hPa Calm     93% 0.0 mm 0.00 W/m2
05:24 8.8 °C 7.7 °C 991.4 hPa Calm   3.2 km/h 93% 0.0 mm 0.00 W/m2
05:29 8.2 °C 7.0 °C 991.4 hPa Calm   1.6 km/h 92% 0.0 mm 0.00 W/m2
05:34 8.0 °C 6.9 °C 991.4 hPa SSW 4.7 km/h 8.0 km/h 93% 0.0 mm 0.00 W/m2
05:39 8.4 °C 7.5 °C 991.4 hPa ESE 3.2 km/h 6.4 km/h 94% 0.0 mm 0.00 W/m2
05:44 8.7 °C 7.8 °C 991.4 hPa Calm   9.7 km/h 94% 0.0 mm 0.00 W/m2
05:49 8.6 °C 7.5 °C 991.8 hPa Calm     93% 0.0 mm 0.00 W/m2
05:54 8.7 °C 7.8 °C 991.8 hPa SSW 1.4 km/h 6.4 km/h 94% 0.0 mm 0.00 W/m2
05:59 8.9 °C 8.0 °C 991.8 hPa SSW 11.1 km/h 14.5 km/h 94% 0.0 mm 0.00 W/m2
06:04 9.2 °C 8.1 °C 992.1 hPa SSE 6.4 km/h 9.7 km/h 93% 0.0 mm 0.00 W/m2
06:09 9.2 °C 8.0 °C 992.1 hPa South 6.4 km/h 9.7 km/h 92% 0.0 mm 0.00 W/m2
06:14 9.2 °C 8.0 °C 992.1 hPa SSW 6.4 km/h 11.3 km/h 92% 0.0 mm 0.00 W/m2
06:19 9.2 °C 7.8 °C 992.1 hPa SSE 6.4 km/h 16.1 km/h 91% 0.0 mm 0.00 W/m2
06:24 9.2 °C 7.8 °C 992.1 hPa South 7.9 km/h 9.7 km/h 91% 0.0 mm 0.00 W/m2
06:29 9.1 °C 7.7 °C 992.1 hPa SSE 6.4 km/h 11.3 km/h 91% 0.0 mm 0.00 W/m2
06:34 9.1 °C 7.7 °C 992.1 hPa South 3.2 km/h 16.1 km/h 91% 0.0 mm 0.00 W/m2
06:39 9.2 °C 8.0 °C 992.1 hPa South 1.4 km/h 11.3 km/h 92% 0.0 mm 0.00 W/m2
06:44 9.2 °C 7.8 °C 992.1 hPa South 1.4 km/h 6.4 km/h 91% 0.0 mm 0.00 W/m2
06:49 9.1 °C 7.7 °C 992.1 hPa SSW 3.2 km/h 8.0 km/h 91% 0.0 mm 0.00 W/m2
06:54 9.0 °C 7.8 °C 992.1 hPa SSE 7.9 km/h 9.7 km/h 92% 0.0 mm 0.00 W/m2
06:59 9.0 °C 7.8 °C 992.1 hPa SE 6.4 km/h 12.9 km/h 92% 0.0 mm 0.00 W/m2
07:04 9.1 °C 7.9 °C 992.1 hPa SSE 7.9 km/h 11.3 km/h 92% 0.0 mm 0.00 W/m2
07:09 9.1 °C 7.9 °C 992.1 hPa SE 6.4 km/h 8.0 km/h 92% 0.0 mm 0.00 W/m2
07:14 8.9 °C 7.5 °C 992.4 hPa SSE 7.9 km/h 12.9 km/h 91% 0.0 mm 0.00 W/m2
07:19 8.8 °C 7.6 °C 992.4 hPa SSE 7.9 km/h 9.7 km/h 92% 0.0 mm 0.00 W/m2
07:24 8.7 °C 7.5 °C 992.4 hPa SSE 1.4 km/h 4.8 km/h 92% 0.0 mm 5.00 W/m2
07:29 8.6 °C 7.4 °C 992.4 hPa SSE 1.4 km/h 6.4 km/h 92% 0.0 mm 9.00 W/m2
07:34 8.6 °C 7.4 °C 992.4 hPa SSE 3.2 km/h 8.0 km/h 92% 0.0 mm 16.00 W/m2
07:39 8.6 °C 7.5 °C 992.4 hPa South 3.2 km/h 9.7 km/h 93% 0.0 mm 21.00 W/m2
07:44 8.7 °C 7.6 °C 992.4 hPa SSE 4.7 km/h 9.7 km/h 93% 0.0 mm 25.00 W/m2
07:49 8.8 °C 7.7 °C 992.4 hPa SSE 6.4 km/h 9.7 km/h 93% 0.0 mm 30.00 W/m2
07:54 8.8 °C 7.7 °C 992.4 hPa SE 6.4 km/h 11.3 km/h 93% 0.0 mm 26.00 W/m2
07:59 8.8 °C 7.7 °C 992.4 hPa SE 11.1 km/h 12.9 km/h 93% 0.0 mm 23.00 W/m2
08:04 8.9 °C 7.8 °C 992.4 hPa SE 9.7 km/h 12.9 km/h 93% 0.0 mm 32.00 W/m2
08:09 8.9 °C 7.8 °C 992.4 hPa SE 7.9 km/h 12.9 km/h 93% 0.0 mm 28.00 W/m2
08:14 9.1 °C 8.0 °C 992.4 hPa SE 6.4 km/h 12.9 km/h 93% 0.0 mm 32.00 W/m2
08:19 9.2 °C 8.0 °C 992.4 hPa SSE 6.4 km/h 12.9 km/h 92% 0.0 mm 33.00 W/m2
08:24 9.3 °C 8.2 °C 992.4 hPa SE 7.9 km/h 11.3 km/h 93% 0.0 mm 19.00 W/m2
08:29 9.5 °C 8.3 °C 992.4 hPa SE 7.9 km/h 14.5 km/h 92% 0.0 mm 16.00 W/m2
08:34 9.6 °C 8.4 °C 992.4 hPa SSE 13.0 km/h 14.5 km/h 92% 0.0 mm 14.00 W/m2
08:39 9.6 °C 8.4 °C 992.4 hPa SE 7.9 km/h 11.3 km/h 92% 0.0 mm 18.00 W/m2
08:44 9.6 °C 8.4 °C 992.4 hPa SE 6.4 km/h 8.0 km/h 92% 0.0 mm 35.00 W/m2
08:49 9.7 °C 8.5 °C 992.4 hPa SE 6.4 km/h 11.3 km/h 92% 0.0 mm 25.00 W/m2
08:54 9.8 °C 8.4 °C 992.4 hPa SSE 1.4 km/h 8.0 km/h 91% 0.0 mm 116.00 W/m2
08:59 9.9 °C 8.5 °C 992.4 hPa South 1.4 km/h 8.0 km/h 91% 0.0 mm 39.00 W/m2
09:03 10.1 °C 8.7 °C 992.4 hPa SE 6.4 km/h 14.5 km/h 91% 0.0 mm 63.00 W/m2
09:09 10.3 °C 8.7 °C 992.8 hPa SE 7.9 km/h 8.0 km/h 90% 0.0 mm 172.00 W/m2
09:14 10.4 °C 8.8 °C 992.4 hPa SSE 4.7 km/h 11.3 km/h 90% 0.0 mm 172.00 W/m2
09:19 10.6 °C 8.9 °C 992.8 hPa SSE 9.7 km/h 12.9 km/h 89% 0.0 mm 188.00 W/m2
09:24 10.7 °C 8.8 °C 992.8 hPa SE 11.1 km/h 14.5 km/h 88% 0.0 mm 156.00 W/m2
09:29 10.8 °C 8.9 °C 992.8 hPa SE 7.9 km/h 9.7 km/h 88% 0.0 mm 86.00 W/m2
09:34 10.8 °C 8.9 °C 992.4 hPa SSE 7.9 km/h 12.9 km/h 88% 0.0 mm 47.00 W/m2
09:39 10.8 °C 9.1 °C 992.4 hPa SSE 7.9 km/h 14.5 km/h 89% 0.0 mm 60.00 W/m2
09:44 10.8 °C 9.1 °C 992.4 hPa SSE 4.7 km/h 12.9 km/h 89% 0.0 mm 74.00 W/m2
09:49 10.8 °C 9.1 °C 992.4 hPa SE 4.7 km/h 12.9 km/h 89% 0.0 mm 95.00 W/m2
09:54 10.8 °C 9.1 °C 992.4 hPa SE 6.4 km/h 11.3 km/h 89% 0.0 mm 151.00 W/m2
09:59 10.9 °C 9.3 °C 992.4 hPa SSE 4.7 km/h 9.7 km/h 90% 0.0 mm 162.00 W/m2
10:04 11.1 °C 9.4 °C 992.4 hPa SE 6.4 km/h 12.9 km/h 89% 0.0 mm 93.00 W/m2
10:09 11.3 °C 9.7 °C 992.4 hPa SW 3.2 km/h 12.9 km/h 90% 0.0 mm 46.00 W/m2
10:14 11.5 °C 9.9 °C 992.4 hPa South 4.7 km/h 9.7 km/h 90% 0.0 mm 16.00 W/m2
10:19 11.6 °C 9.8 °C 992.4 hPa South 1.4 km/h 9.7 km/h 89% 0.3 mm 7.00 W/m2
10:24 11.6 °C 9.8 °C 992.4 hPa Calm   4.8 km/h 89% 0.5 mm 26.00 W/m2
10:29 10.9 °C 8.3 °C 993.1 hPa West 24.1 km/h 38.6 km/h 84% 0.5 mm 11.00 W/m2
10:34 10.3 °C 8.1 °C 993.1 hPa SSW 6.4 km/h 19.3 km/h 86% 2.5 mm 14.00 W/m2
10:39 9.8 °C 7.7 °C 992.8 hPa SSE 9.7 km/h 22.5 km/h 87% 3.0 mm 25.00 W/m2
10:44 9.6 °C 7.7 °C 992.8 hPa South 4.7 km/h 9.7 km/h 88% 3.0 mm 42.00 W/m2
10:49 9.6 °C 7.9 °C 992.8 hPa SSW 7.9 km/h 12.9 km/h 89% 3.3 mm 35.00 W/m2
10:54 9.5 °C 7.8 °C 992.4 hPa WSW 27.4 km/h 27.4 km/h 89% 3.3 mm 25.00 W/m2
10:59 9.5 °C 7.9 °C 992.4 hPa SW 3.2 km/h 11.3 km/h 90% 3.3 mm 35.00 W/m2
11:04 9.7 °C 8.1 °C 992.4 hPa SSW 1.4 km/h 14.5 km/h 90% 3.3 mm 70.00 W/m2
11:09 9.8 °C 8.2 °C 992.4 hPa SW 6.4 km/h 12.9 km/h 90% 3.3 mm 70.00 W/m2
11:14 9.9 °C 8.3 °C 992.4 hPa SW 9.7 km/h 11.3 km/h 90% 3.3 mm 70.00 W/m2
11:19 9.9 °C 8.3 °C 992.1 hPa WSW 7.9 km/h 9.7 km/h 90% 3.3 mm 70.00 W/m2
11:24 10.2 °C 8.6 °C 992.1 hPa SSW 9.7 km/h 14.5 km/h 90% 2.8 mm 163.00 W/m2
11:29 10.3 °C 8.7 °C 992.1 hPa SSW 11.1 km/h 14.5 km/h 90% 2.8 mm 113.00 W/m2
11:34 10.6 °C 9.0 °C 992.1 hPa SW 1.4 km/h 11.3 km/h 90% 0.8 mm 346.00 W/m2
11:39 10.8 °C 9.1 °C 992.1 hPa SW 4.7 km/h 9.7 km/h 89% 0.5 mm 229.00 W/m2
11:44 11.2 °C 9.5 °C 991.8 hPa WSW 6.4 km/h 8.0 km/h 89% 0.5 mm 316.00 W/m2
11:49 11.4 °C 9.7 °C 991.8 hPa SSW 4.7 km/h 9.7 km/h 89% 0.3 mm 308.00 W/m2
11:54 11.7 °C 9.6 °C 991.8 hPa SSE 13.0 km/h 16.1 km/h 87% 0.3 mm 297.00 W/m2
11:59 12.0 °C 9.9 °C 991.4 hPa SSW 6.4 km/h 16.1 km/h 87% 0.3 mm 350.00 W/m2
12:04 12.3 °C 10.2 °C 991.4 hPa WSW 9.7 km/h 24.1 km/h 87% 0.0 mm 338.00 W/m2
12:09 12.4 °C 10.1 °C 991.4 hPa West 4.7 km/h 19.3 km/h 86% 0.0 mm 248.00 W/m2
12:14 12.6 °C 10.3 °C 991.4 hPa SSW 14.3 km/h 16.1 km/h 86% 0.0 mm 123.00 W/m2
12:19 12.5 °C 10.0 °C 991.4 hPa SW 6.4 km/h 16.1 km/h 85% 0.0 mm 97.00 W/m2
12:24 12.4 °C 9.9 °C 991.4 hPa South 4.7 km/h 20.9 km/h 85% 0.0 mm 93.00 W/m2
12:29 12.3 °C 9.9 °C 991.1 hPa SW 9.7 km/h 19.3 km/h 85% 0.0 mm 90.00 W/m2
12:34 12.3 °C 9.9 °C 991.4 hPa SW 6.4 km/h 11.3 km/h 85% 0.0 mm 51.00 W/m2
12:39 12.2 °C 9.9 °C 991.4 hPa SSW 6.4 km/h 17.7 km/h 86% 0.0 mm 28.00 W/m2
12:44 12.1 °C 9.8 °C 991.4 hPa WSW 3.2 km/h 16.1 km/h 86% 0.0 mm 7.00 W/m2
12:49 11.7 °C 9.8 °C 991.8 hPa WNW 9.7 km/h 20.9 km/h 88% 3.0 mm 9.00 W/m2
12:54 11.4 °C 9.7 °C 991.8 hPa SSW 13.0 km/h 16.1 km/h 89% 3.6 mm 26.00 W/m2
12:59 11.4 °C 9.8 °C 991.4 hPa SW 11.1 km/h 12.9 km/h 90% 4.3 mm 174.00 W/m2
13:04 11.4 °C 9.8 °C 991.4 hPa SSW 14.3 km/h 25.7 km/h 90% 4.3 mm 246.00 W/m2
13:09 11.4 °C 9.7 °C 991.4 hPa SSW 6.4 km/h 22.5 km/h 89% 4.3 mm 250.00 W/m2
13:14 11.5 °C 9.7 °C 991.4 hPa SW 9.7 km/h 17.7 km/h 89% 4.3 mm 336.00 W/m2
13:19 11.7 °C 9.9 °C 991.4 hPa SW 13.0 km/h 25.7 km/h 89% 4.3 mm 120.00 W/m2
13:24 11.6 °C 9.7 °C 991.4 hPa SSW 16.3 km/h 29.0 km/h 88% 4.3 mm 69.00 W/m2
13:29 11.6 °C 9.5 °C 991.4 hPa SW 13.0 km/h 20.9 km/h 87% 4.3 mm 62.00 W/m2
13:34 11.6 °C 9.5 °C 991.4 hPa SW 4.7 km/h 22.5 km/h 87% 4.3 mm 114.00 W/m2
13:39 11.6 °C 9.5 °C 991.4 hPa SW 19.5 km/h 19.3 km/h 87% 4.3 mm 130.00 W/m2
13:44 11.7 °C 9.8 °C 991.4 hPa SW 13.0 km/h 20.9 km/h 88% 4.3 mm 149.00 W/m2
13:49 11.7 °C 9.8 °C 991.4 hPa WSW 19.5 km/h 20.9 km/h 88% 1.3 mm 178.00 W/m2
13:54 11.8 °C 9.9 °C 991.4 hPa SW 9.7 km/h 17.7 km/h 88% 0.5 mm 308.00 W/m2
13:59 11.9 °C 10.0 °C 991.4 hPa SW 6.4 km/h 20.9 km/h 88% 0.0 mm 137.00 W/m2
14:04 11.9 °C 9.8 °C 991.4 hPa South 4.7 km/h 16.1 km/h 87% 0.0 mm 49.00 W/m2
14:09 11.8 °C 9.7 °C 991.4 hPa South 4.7 km/h 14.5 km/h 87% 0.0 mm 60.00 W/m2
14:14 11.8 °C 9.7 °C 991.4 hPa SSW 3.2 km/h 12.9 km/h 87% 0.0 mm 69.00 W/m2
14:19 11.7 °C 9.8 °C 991.4 hPa SW 9.7 km/h 19.3 km/h 88% 0.0 mm 62.00 W/m2
14:24 11.7 °C 9.8 °C 991.4 hPa SSW 19.5 km/h 19.3 km/h 88% 0.0 mm 72.00 W/m2
14:29 11.8 °C 9.9 °C 991.4 hPa SSE 17.7 km/h 17.7 km/h 88% 0.0 mm 200.00 W/m2
14:34 11.9 °C 9.8 °C 991.4 hPa SW 7.9 km/h 16.1 km/h 87% 0.0 mm 209.00 W/m2
14:39 12.0 °C 10.1 °C 991.4 hPa South 13.0 km/h 16.1 km/h 88% 0.0 mm 165.00 W/m2
14:44 11.9 °C 9.8 °C 991.4 hPa South 6.4 km/h 12.9 km/h 87% 0.0 mm 69.00 W/m2
14:49 11.8 °C 9.5 °C 991.4 hPa South 4.7 km/h 9.7 km/h 86% 0.0 mm 70.00 W/m2
14:54 11.8 °C 9.5 °C 991.4 hPa SSW 11.1 km/h 16.1 km/h 86% 0.0 mm 128.00 W/m2
14:59 11.8 °C 9.5 °C 991.4 hPa WSW 3.2 km/h 9.7 km/h 86% 0.0 mm 63.00 W/m2
15:04 11.8 °C 9.4 °C 991.4 hPa SE 4.7 km/h 6.4 km/h 85% 0.0 mm 37.00 W/m2
15:09 11.7 °C 9.3 °C 991.4 hPa ESE 3.2 km/h 8.0 km/h 85% 0.0 mm 39.00 W/m2
15:14 11.7 °C 9.1 °C 991.4 hPa South 3.2 km/h 9.7 km/h 84% 0.0 mm 28.00 W/m2
15:19 11.6 °C 9.0 °C 991.4 hPa SSE 4.7 km/h 11.3 km/h 84% 0.0 mm 28.00 W/m2
15:24 11.6 °C 9.0 °C 991.4 hPa SE 6.4 km/h 8.0 km/h 84% 0.0 mm 25.00 W/m2
15:29 11.5 °C 9.1 °C 991.4 hPa ESE 6.4 km/h 9.7 km/h 85% 0.0 mm 21.00 W/m2
15:34 11.4 °C 9.0 °C 991.4 hPa SE 1.4 km/h 3.2 km/h 85% 0.0 mm 21.00 W/m2
15:39 11.3 °C 9.0 °C 991.4 hPa SSE 7.9 km/h 11.3 km/h 86% 0.0 mm 25.00 W/m2
15:44 11.3 °C 8.9 °C 991.4 hPa WSW 6.4 km/h 6.4 km/h 85% 0.0 mm 21.00 W/m2
15:49 11.4 °C 9.1 °C 991.4 hPa Calm   11.3 km/h 86% 0.0 mm 19.00 W/m2
15:54 11.3 °C 8.9 °C 991.4 hPa SSE 3.2 km/h 11.3 km/h 85% 0.0 mm 16.00 W/m2
15:59 11.3 °C 8.9 °C 991.4 hPa SE 6.4 km/h 11.3 km/h 85% 0.0 mm 14.00 W/m2
16:04 11.2 °C 8.9 °C 991.4 hPa ESE 4.7 km/h 11.3 km/h 86% 0.0 mm 12.00 W/m2
16:09 11.1 °C 8.8 °C 991.4 hPa SSE 6.4 km/h 9.7 km/h 86% 0.0 mm 11.00 W/m2
16:14 11.0 °C 8.9 °C 991.4 hPa SSE 6.4 km/h 11.3 km/h 87% 0.0 mm 11.00 W/m2
16:19 10.9 °C 8.8 °C 991.4 hPa SE 6.4 km/h 8.0 km/h 87% 0.0 mm 5.00 W/m2
16:24 10.8 °C 8.7 °C 991.4 hPa SE 3.2 km/h 8.0 km/h 87% 0.0 mm 0.00 W/m2
16:29 10.8 °C 8.9 °C 991.4 hPa SSE 7.9 km/h 11.3 km/h 88% 0.0 mm 0.00 W/m2
16:34 10.7 °C 8.8 °C 991.4 hPa SE 1.4 km/h 6.4 km/h 88% 0.0 mm 0.00 W/m2
16:39 10.6 °C 8.7 °C 991.4 hPa SSE 3.2 km/h 8.0 km/h 88% 0.0 mm 0.00 W/m2
16:44 10.5 °C 8.6 °C 991.4 hPa Calm   3.2 km/h 88% 0.0 mm 0.00 W/m2
16:49 10.4 °C 8.7 °C 991.4 hPa Calm     89% 0.0 mm 0.00 W/m2
16:54 10.8 °C 9.4 °C 991.8 hPa Calm     91% 0.0 mm 0.00 W/m2
16:59 10.9 °C 9.5 °C 991.8 hPa Calm     91% 0.0 mm 0.00 W/m2
17:04 10.6 °C 9.2 °C 991.8 hPa Calm     91% 0.0 mm 0.00 W/m2
17:09 10.4 °C 8.8 °C 991.8 hPa Calm     90% 0.0 mm 0.00 W/m2
17:14 10.1 °C 8.5 °C 991.8 hPa Calm     90% 0.0 mm 0.00 W/m2
17:19 10.2 °C 9.1 °C 991.8 hPa Calm     93% 0.0 mm 0.00 W/m2
17:24 10.4 °C 9.0 °C 991.8 hPa SSE 3.2 km/h 3.2 km/h 91% 0.0 mm 0.00 W/m2
17:29 9.7 °C 8.1 °C 991.8 hPa SSE 4.7 km/h 4.8 km/h 90% 0.0 mm 0.00 W/m2
17:34 9.4 °C 8.0 °C 991.8 hPa SSE 6.4 km/h 9.7 km/h 91% 0.0 mm 0.00 W/m2
17:39 9.4 °C 8.2 °C 991.8 hPa SSE 3.2 km/h 4.8 km/h 92% 0.0 mm 0.00 W/m2
17:44 9.4 °C 8.2 °C 991.8 hPa SSE 3.2 km/h 8.0 km/h 92% 0.0 mm 0.00 W/m2
17:49 9.4 °C 8.2 °C 991.8 hPa SSE 3.2 km/h 9.7 km/h 92% 0.0 mm 0.00 W/m2
17:54 9.5 °C 8.3 °C 991.8 hPa SSE 1.4 km/h 4.8 km/h 92% 0.0 mm 0.00 W/m2
17:59 9.7 °C 8.5 °C 991.8 hPa SSE 1.4 km/h 3.2 km/h 92% 0.0 mm 0.00 W/m2
18:04 9.6 °C 8.4 °C 991.8 hPa SSE 4.7 km/h 8.0 km/h 92% 0.0 mm 0.00 W/m2
18:09 9.6 °C 8.4 °C 991.8 hPa SSE 4.7 km/h 6.4 km/h 92% 0.0 mm 0.00 W/m2
18:14 9.6 °C 8.4 °C 991.8 hPa SSE 6.4 km/h 8.0 km/h 92% 0.0 mm 0.00 W/m2
18:19 9.7 °C 8.5 °C 991.8 hPa SSE 1.4 km/h 9.7 km/h 92% 0.0 mm 0.00 W/m2
18:24 9.7 °C 8.5 °C 992.1 hPa SSE 11.3 km/h 11.3 km/h 92% 0.0 mm 0.00 W/m2
18:29 9.7 °C 8.5 °C 992.1 hPa SSE 7.9 km/h 11.3 km/h 92% 0.0 mm 0.00 W/m2
18:34 9.8 °C 8.6 °C 991.8 hPa SSE 3.2 km/h 9.7 km/h 92% 0.0 mm 0.00 W/m2
18:39 9.8 °C 8.6 °C 991.8 hPa SSE 3.2 km/h 8.0 km/h 92% 0.0 mm 0.00 W/m2
18:44 9.8 °C 8.6 °C 991.8 hPa SSE 6.4 km/h 9.7 km/h 92% 0.0 mm 0.00 W/m2
18:49 9.8 °C 8.6 °C 991.8 hPa SSE 7.9 km/h 11.3 km/h 92% 0.0 mm 0.00 W/m2
18:54 9.8 °C 8.6 °C 991.8 hPa SSE 6.4 km/h 11.3 km/h 92% 0.0 mm 0.00 W/m2
18:59 9.9 °C 8.7 °C 991.8 hPa SE 4.7 km/h 9.7 km/h 92% 0.0 mm 0.00 W/m2
19:04 9.9 °C 8.7 °C 992.1 hPa SE 6.4 km/h 8.0 km/h 92% 0.0 mm 0.00 W/m2
19:09 9.9 °C 8.7 °C 992.1 hPa SSE 4.7 km/h 8.0 km/h 92% 0.0 mm 0.00 W/m2
19:14 9.9 °C 8.7 °C 992.1 hPa SE 7.9 km/h 8.0 km/h 92% 0.0 mm 0.00 W/m2
19:19 10.0 °C 8.8 °C 992.1 hPa SE 3.2 km/h 6.4 km/h 92% 0.0 mm 0.00 W/m2
19:24 10.1 °C 8.9 °C 992.1 hPa SSW 1.4 km/h 9.7 km/h 92% 0.0 mm 0.00 W/m2
19:29 10.3 °C 9.1 °C 992.1 hPa SW 1.4 km/h 4.8 km/h 92% 0.0 mm 0.00 W/m2
19:34 10.3 °C 9.1 °C 992.1 hPa South 7.9 km/h 8.0 km/h 92% 0.0 mm 0.00 W/m2
19:39 10.2 °C 8.8 °C 992.4 hPa SSW 7.9 km/h 9.7 km/h 91% 0.0 mm 0.00 W/m2
19:44 10.3 °C 8.9 °C 992.4 hPa SW 3.2 km/h 3.2 km/h 91% 0.0 mm 0.00 W/m2
19:49 10.4 °C 8.8 °C 992.4 hPa SSE 3.2 km/h 9.7 km/h 90% 0.0 mm 0.00 W/m2
19:54 10.3 °C 8.6 °C 992.4 hPa SSE 6.4 km/h 12.9 km/h 89% 0.0 mm 0.00 W/m2
19:59 10.3 °C 8.6 °C 992.4 hPa Calm   4.8 km/h 89% 0.0 mm 0.00 W/m2
20:04 10.3 °C 8.4 °C 992.1 hPa SSW 3.2 km/h 9.7 km/h 88% 0.0 mm 0.00 W/m2
20:09 10.2 °C 8.3 °C 992.1 hPa SSW 7.9 km/h 12.9 km/h 88% 0.0 mm 0.00 W/m2
20:14 10.4 °C 9.0 °C 992.4 hPa SW 3.2 km/h 6.4 km/h 91% 0.0 mm 0.00 W/m2
20:19 10.7 °C 9.1 °C 992.4 hPa SW 3.2 km/h 3.2 km/h 90% 0.0 mm 0.00 W/m2
20:24 10.7 °C 9.0 °C 992.1 hPa WSW 1.4 km/h 11.3 km/h 89% 0.0 mm 0.00 W/m2
20:29 10.6 °C 8.9 °C 992.1 hPa SW 1.4 km/h 9.7 km/h 89% 0.0 mm 0.00 W/m2
20:34 10.6 °C 8.9 °C 992.1 hPa SSW 3.2 km/h 8.0 km/h 89% 0.0 mm 0.00 W/m2
20:39 10.4 °C 8.5 °C 992.4 hPa SW 4.7 km/h 9.7 km/h 88% 0.0 mm 0.00 W/m2
20:44 10.3 °C 8.2 °C 992.4 hPa SSW 7.9 km/h 9.7 km/h 87% 0.0 mm 0.00 W/m2
20:49 10.3 °C 8.4 °C 992.4 hPa SW 9.7 km/h 11.3 km/h 88% 0.0 mm 0.00 W/m2
20:54 10.3 °C 8.4 °C 992.4 hPa SW 11.1 km/h 16.1 km/h 88% 0.0 mm 0.00 W/m2
20:59 10.2 °C 8.3 °C 992.4 hPa SSW 13.0 km/h 12.9 km/h 88% 0.0 mm 0.00 W/m2
21:04 10.2 °C 8.3 °C 992.1 hPa SSE 3.2 km/h 9.7 km/h 88% 0.0 mm 0.00 W/m2
21:09 10.0 °C 8.1 °C 992.4 hPa South 1.4 km/h 12.9 km/h 88% 0.0 mm 0.00 W/m2
21:14 9.8 °C 7.9 °C 992.4 hPa South 7.9 km/h 9.7 km/h 88% 0.0 mm 0.00 W/m2
21:19 9.7 °C 7.8 °C 992.4 hPa SSE 6.4 km/h 9.7 km/h 88% 0.0 mm 0.00 W/m2
21:24 9.7 °C 8.0 °C 992.4 hPa South 1.4 km/h 11.3 km/h 89% 0.0 mm 0.00 W/m2
21:29 9.7 °C 8.0 °C 992.4 hPa SSE 4.7 km/h 8.0 km/h 89% 0.0 mm 0.00 W/m2
21:34 9.6 °C 7.9 °C 992.4 hPa South 6.4 km/h 9.7 km/h 89% 0.0 mm 0.00 W/m2
21:39 9.7 °C 8.1 °C 992.4 hPa South 6.4 km/h 6.4 km/h 90% 0.0 mm 0.00 W/m2
21:44 9.6 °C 7.9 °C 992.4 hPa SSE 4.7 km/h 9.7 km/h 89% 0.0 mm 0.00 W/m2
21:49 9.7 °C 8.1 °C 992.4 hPa South 4.7 km/h 11.3 km/h 90% 0.0 mm 0.00 W/m2
21:54 9.7 °C 8.1 °C 992.4 hPa South 6.4 km/h 11.3 km/h 90% 0.0 mm 0.00 W/m2
21:59 9.7 °C 8.1 °C 992.4 hPa SSW 3.2 km/h 12.9 km/h 90% 0.0 mm 0.00 W/m2
22:04 9.7 °C 8.0 °C 992.4 hPa South 4.7 km/h 12.9 km/h 89% 0.0 mm 0.00 W/m2
22:09 9.7 °C 8.0 °C 992.4 hPa SSE 9.7 km/h 12.9 km/h 89% 0.0 mm 0.00 W/m2
22:14 9.8 °C 8.2 °C 992.4 hPa South 7.9 km/h 12.9 km/h 90% 0.0 mm 0.00 W/m2
22:19 9.8 °C 8.1 °C 992.4 hPa SSW 4.7 km/h 12.9 km/h 89% 0.0 mm 0.00 W/m2
22:23 9.8 °C 8.1 °C 992.4 hPa SSW 6.4 km/h 6.4 km/h 89% 0.0 mm 0.00 W/m2
22:29 9.8 °C 8.2 °C 992.4 hPa SSW 6.4 km/h 12.9 km/h 90% 0.0 mm 0.00 W/m2
22:34 9.8 °C 8.2 °C 992.4 hPa SSW 7.9 km/h 14.5 km/h 90% 0.0 mm 0.00 W/m2
22:39 9.7 °C 8.1 °C 992.4 hPa South 4.7 km/h 11.3 km/h 90% 0.0 mm 0.00 W/m2
22:44 9.6 °C 8.0 °C 992.4 hPa SSE 6.4 km/h 9.7 km/h 90% 0.0 mm 0.00 W/m2
22:49 9.6 °C 8.0 °C 992.4 hPa South 4.7 km/h 8.0 km/h 90% 0.0 mm 0.00 W/m2
22:54 9.5 °C 8.1 °C 992.4 hPa SSE 9.7 km/h 9.7 km/h 91% 0.0 mm 0.00 W/m2
22:59 9.5 °C 8.1 °C 992.4 hPa SSE 6.4 km/h 9.7 km/h 91% 0.0 mm 0.00 W/m2
23:04 9.4 °C 8.0 °C 992.4 hPa South 6.4 km/h 9.7 km/h 91% 0.0 mm 0.00 W/m2
23:09 9.3 °C 7.9 °C 992.4 hPa South 4.7 km/h 11.3 km/h 91% 0.0 mm 0.00 W/m2
23:14 9.1 °C 7.7 °C 992.8 hPa South 9.7 km/h 11.3 km/h 91% 0.0 mm 0.00 W/m2
23:19 9.1 °C 7.9 °C 992.8 hPa SE 4.7 km/h 11.3 km/h 92% 0.0 mm 0.00 W/m2
23:24 9.2 °C 8.0 °C 992.8 hPa SSE 6.4 km/h 12.9 km/h 92% 0.0 mm 0.00 W/m2
23:29 9.1 °C 7.9 °C 992.8 hPa SSE 7.9 km/h 14.5 km/h 92% 0.0 mm 0.00 W/m2
23:34 9.1 °C 7.9 °C 992.8 hPa South 11.1 km/h 11.3 km/h 92% 0.0 mm 0.00 W/m2
23:39 9.0 °C 7.8 °C 992.8 hPa SSE 11.1 km/h 11.3 km/h 92% 0.0 mm 0.00 W/m2
23:44 9.1 °C 8.0 °C 992.8 hPa South 7.9 km/h 14.5 km/h 93% 0.0 mm 0.00 W/m2
23:49 9.1 °C 7.9 °C 992.8 hPa SSW 3.2 km/h 8.0 km/h 92% 0.0 mm 0.00 W/m2
23:54 9.1 °C 8.0 °C 992.8 hPa SSE 6.4 km/h 11.3 km/h 93% 0.0 mm 0.00 W/m2
23:59 9.0 °C 7.8 °C 992.8 hPa South 4.7 km/h 8.0 km/h 92% 0.0 mm 0.00 W/m2